createdAt,value
2019-02-20T00:00:00.932Z,5.50
2019-02-20T00:02:30.246Z,5.50
2019-02-20T00:04:59.297Z,5.40
2019-02-20T00:07:28.206Z,5.30
2019-02-20T00:09:57.252Z,5.10
2019-02-20T00:12:26.344Z,5.30
2019-02-20T00:14:55.810Z,5.40
2019-02-20T00:17:24.869Z,5.40
2019-02-20T00:19:53.840Z,5.30
2019-02-20T00:22:22.871Z,5.30
2019-02-20T00:24:51.845Z,5.40
2019-02-20T00:27:20.824Z,5.50
2019-02-20T00:29:50.160Z,5.30
2019-02-20T00:32:19.160Z,5.10
2019-02-20T00:34:48.260Z,4.80
2019-02-20T00:37:17.356Z,4.80
2019-02-20T00:39:46.337Z,4.70
2019-02-20T00:42:15.286Z,4.80
2019-02-20T00:45:03.340Z,4.80
2019-02-20T00:47:45.529Z,4.80
2019-02-20T00:50:15.100Z,4.70
2019-02-20T00:52:50.475Z,4.70
2019-02-20T00:55:19.702Z,4.60
2019-02-20T00:57:48.800Z,4.60
2019-02-20T01:00:17.753Z,4.60
2019-02-20T01:02:46.823Z,4.60
2019-02-20T01:05:15.835Z,4.50
2019-02-20T01:10:13.452Z,4.30
2019-02-20T01:12:42.544Z,4.30
2019-02-20T01:15:11.540Z,4.20
2019-02-20T01:17:40.602Z,4.20
2019-02-20T01:20:09.799Z,4.20
2019-02-20T01:22:38.778Z,4.30
2019-02-20T01:25:07.870Z,4.20
2019-02-20T01:27:36.929Z,4.30
2019-02-20T01:30:05.924Z,4.40
2019-02-20T01:32:34.964Z,4.30
2019-02-20T01:35:03.985Z,4.10
2019-02-20T01:37:32.951Z,4.10
2019-02-20T01:40:02.160Z,4.00
2019-02-20T01:42:31.130Z,4.00
2019-02-20T01:45:00.282Z,3.90
2019-02-20T01:47:29.427Z,3.90
2019-02-20T01:49:58.430Z,3.90
2019-02-20T01:52:27.313Z,3.80
2019-02-20T01:54:56.324Z,3.90
2019-02-20T01:57:25.231Z,3.80
2019-02-20T01:59:54.333Z,3.70
2019-02-20T02:02:23.302Z,3.60
2019-02-20T02:04:52.292Z,3.60
2019-02-20T02:07:21.297Z,3.60
2019-02-20T02:09:50.402Z,3.50
2019-02-20T02:12:19.363Z,3.50
2019-02-20T02:14:48.315Z,3.40
2019-02-20T02:17:17.280Z,3.50
2019-02-20T02:19:46.314Z,3.50
2019-02-20T02:22:15.410Z,3.40
2019-02-20T02:24:44.478Z,3.30
2019-02-20T02:27:13.483Z,3.30
2019-02-20T02:29:42.339Z,3.40
2019-02-20T02:32:11.359Z,3.30
2019-02-20T02:34:40.513Z,3.40
2019-02-20T02:37:09.566Z,3.40
2019-02-20T02:42:07.087Z,3.30
2019-02-20T02:44:36.161Z,3.20
2019-02-20T02:47:05.157Z,3.20
2019-02-20T02:49:34.247Z,3.10
2019-02-20T02:52:03.308Z,3.10
2019-02-20T02:54:32.441Z,3.00
2019-02-20T02:57:01.392Z,3.00
2019-02-20T02:59:30.531Z,3.10
2019-02-20T03:04:28.107Z,3.00
2019-02-20T03:06:57.058Z,3.00
2019-02-20T03:09:26.018Z,3.00
2019-02-20T03:11:55.077Z,3.10
2019-02-20T03:14:24.042Z,3.20
2019-02-20T03:16:53.156Z,3.30
2019-02-20T03:19:22.192Z,3.30
2019-02-20T03:21:51.320Z,3.00
2019-02-20T03:24:20.260Z,3.00
2019-02-20T03:26:50.868Z,3.00
2019-02-20T03:29:19.911Z,3.00
2019-02-20T03:31:48.926Z,2.90
2019-02-20T03:34:17.878Z,3.00
2019-02-20T03:36:46.804Z,3.00
2019-02-20T03:39:15.881Z,3.10
2019-02-20T03:41:44.864Z,3.30
2019-02-20T03:44:13.753Z,3.20
2019-02-20T03:46:42.734Z,3.20
2019-02-20T03:49:11.609Z,3.10
2019-02-20T03:51:40.618Z,3.00
2019-02-20T03:54:09.561Z,3.00
2019-02-20T03:56:38.494Z,3.00
2019-02-20T03:59:07.410Z,3.10
2019-02-20T04:01:36.559Z,3.10
2019-02-20T04:04:05.533Z,3.00
2019-02-20T04:06:34.516Z,2.80
2019-02-20T04:09:04.866Z,2.80
2019-02-20T04:11:33.772Z,2.80
2019-02-20T04:14:02.827Z,2.70
2019-02-20T04:19:00.312Z,2.70
2019-02-20T04:21:29.450Z,2.70
2019-02-20T04:24:02.627Z,2.70
2019-02-20T04:26:29.273Z,2.70
2019-02-20T04:28:58.173Z,2.70
2019-02-20T04:31:27.198Z,2.80
2019-02-20T04:33:57.325Z,2.80
2019-02-20T04:36:26.372Z,2.80
2019-02-20T04:38:55.340Z,2.90
2019-02-20T04:41:24.354Z,3.00
2019-02-20T04:43:53.306Z,3.00
2019-02-20T04:46:22.194Z,3.00
2019-02-20T04:48:51.351Z,3.00
2019-02-20T04:51:20.344Z,3.00
2019-02-20T04:53:49.264Z,3.00
2019-02-20T04:56:18.220Z,3.10
2019-02-20T04:58:49.441Z,3.20
2019-02-20T05:01:18.522Z,3.20
2019-02-20T05:03:47.613Z,3.30
2019-02-20T05:06:16.629Z,3.40
2019-02-20T05:08:45.679Z,3.30
2019-02-20T05:11:14.637Z,3.30
2019-02-20T05:13:43.564Z,3.30
2019-02-20T05:16:12.567Z,3.30
2019-02-20T05:18:41.753Z,3.40
2019-02-20T05:21:10.974Z,3.40
2019-02-20T05:23:39.952Z,3.40
2019-02-20T05:26:08.847Z,3.60
2019-02-20T05:28:37.774Z,3.70
2019-02-20T05:31:06.717Z,3.60
2019-02-20T05:33:35.701Z,3.60
2019-02-20T05:36:04.794Z,3.60
2019-02-20T05:38:33.766Z,3.60
2019-02-20T05:41:02.661Z,3.60
2019-02-20T05:43:31.604Z,3.60
2019-02-20T05:46:00.632Z,3.50
2019-02-20T05:48:29.654Z,3.50
2019-02-20T05:50:58.714Z,3.90
2019-02-20T05:53:27.587Z,3.90
2019-02-20T05:55:56.533Z,3.90
2019-02-20T05:58:25.553Z,3.80
2019-02-20T06:00:54.578Z,3.80
2019-02-20T06:03:23.537Z,3.80
2019-02-20T06:05:52.548Z,3.70
2019-02-20T06:08:21.523Z,3.70
2019-02-20T06:13:19.151Z,3.60
2019-02-20T06:15:48.125Z,3.40
2019-02-20T06:18:17.199Z,3.40
2019-02-20T06:20:46.219Z,3.40
2019-02-20T06:23:15.768Z,3.40
2019-02-20T06:28:13.296Z,3.40
2019-02-20T06:30:42.408Z,3.30
2019-02-20T06:33:11.470Z,3.30
2019-02-20T06:35:40.728Z,3.30
2019-02-20T06:38:10.927Z,3.30
2019-02-20T06:40:40.417Z,3.30
2019-02-20T06:43:09.541Z,3.40
2019-02-20T06:45:38.435Z,3.50
2019-02-20T06:48:07.447Z,3.50
2019-02-20T06:50:36.388Z,3.50
2019-02-20T06:53:05.491Z,3.50
2019-02-20T06:55:34.440Z,3.50
2019-02-20T06:58:03.469Z,3.50
2019-02-20T07:00:32.451Z,3.50
2019-02-20T07:03:01.401Z,3.50
2019-02-20T07:05:38.753Z,3.50
2019-02-20T07:08:46.217Z,3.50
2019-02-20T07:11:48.031Z,3.50
2019-02-20T07:14:39.455Z,3.50
2019-02-20T07:17:54.337Z,3.50
2019-02-20T07:21:16.357Z,3.50
2019-02-20T07:23:57.844Z,3.50
2019-02-20T07:27:14.247Z,3.50
2019-02-20T07:30:03.992Z,3.60
2019-02-20T07:32:33.888Z,3.70
2019-02-20T07:35:02.942Z,3.80
2019-02-20T07:37:32.099Z,3.80
2019-02-20T07:40:01.081Z,4.10
2019-02-20T07:42:30.048Z,3.90
2019-02-20T07:44:58.988Z,4.00
2019-02-20T07:47:27.964Z,4.10
2019-02-20T07:49:56.964Z,4.10
2019-02-20T07:52:25.940Z,4.20
2019-02-20T07:54:54.945Z,4.20
2019-02-20T07:57:24.886Z,4.20
2019-02-20T07:59:53.944Z,4.20
2019-02-20T08:02:23.014Z,4.30
2019-02-20T08:04:52.018Z,4.50
2019-02-20T08:07:21.009Z,4.50
2019-02-20T08:09:50.208Z,4.50
2019-02-20T08:12:19.102Z,4.50
2019-02-20T08:14:48.131Z,4.60
2019-02-20T08:17:17.112Z,4.60
2019-02-20T08:19:46.188Z,4.60
2019-02-20T08:22:15.368Z,4.60
2019-02-20T08:24:44.874Z,4.60
2019-02-20T08:27:13.948Z,4.60
2019-02-20T08:29:42.912Z,4.70
2019-02-20T08:32:11.922Z,4.90
2019-02-20T08:34:40.848Z,4.90
2019-02-20T08:37:09.818Z,4.90
2019-02-20T08:39:38.732Z,5.10
2019-02-20T08:42:07.877Z,5.10
2019-02-20T08:44:36.907Z,5.20
2019-02-20T08:47:05.872Z,5.30
2019-02-20T08:49:34.836Z,5.30
2019-02-20T08:52:03.882Z,5.50
2019-02-20T08:54:32.731Z,5.70
2019-02-20T08:57:01.716Z,5.70
2019-02-20T08:59:30.736Z,5.70
2019-02-20T09:02:00.346Z,5.10
2019-02-20T09:04:29.469Z,6.00
2019-02-20T09:06:58.460Z,6.00
2019-02-20T09:09:27.473Z,6.10
2019-02-20T09:11:56.534Z,6.40
2019-02-20T09:14:25.646Z,6.80
2019-02-20T09:16:54.605Z,6.90
2019-02-20T09:19:23.680Z,7.20
2019-02-20T09:21:52.732Z,7.90
2019-02-20T09:24:21.701Z,7.50
2019-02-20T09:26:50.688Z,7.70
2019-02-20T09:29:20.093Z,7.70
2019-02-20T09:31:49.088Z,7.80
2019-02-20T09:34:17.985Z,8.50
2019-02-20T09:36:46.920Z,8.30
2019-02-20T09:39:43.161Z,8.20
2019-02-20T09:42:15.909Z,8.90
2019-02-20T09:44:49.598Z,9.50
2019-02-20T09:47:19.532Z,10.70
2019-02-20T09:49:48.505Z,10.70
2019-02-20T09:52:17.606Z,10.60
2019-02-20T09:54:46.619Z,11.00
2019-02-20T09:57:15.694Z,11.00
2019-02-20T09:59:44.651Z,11.10
2019-02-20T10:02:13.747Z,11.00
2019-02-20T10:04:42.697Z,11.40
2019-02-20T10:07:11.837Z,11.40
2019-02-20T10:09:40.848Z,11.50
2019-02-20T10:12:09.870Z,11.40
2019-02-20T10:14:40.398Z,11.60
2019-02-20T10:17:09.601Z,11.50
2019-02-20T10:19:38.556Z,11.30
2019-02-20T10:22:07.706Z,11.30
2019-02-20T10:24:36.671Z,11.10
2019-02-20T10:27:05.841Z,10.40
2019-02-20T10:29:34.806Z,10.40
2019-02-20T10:32:03.864Z,10.40
2019-02-20T10:34:32.951Z,10.50
2019-02-20T10:37:01.818Z,10.50
2019-02-20T10:39:30.756Z,11.10
2019-02-20T10:41:59.826Z,11.50
2019-02-20T10:44:28.825Z,14.90
2019-02-20T10:49:26.824Z,14.70
2019-02-20T10:51:56.048Z,13.60
2019-02-20T10:54:24.927Z,12.60
2019-02-20T10:56:54.065Z,12.50
2019-02-20T10:59:23.389Z,12.60
2019-02-20T11:01:52.373Z,12.10
2019-02-20T11:04:21.359Z,11.20
2019-02-20T11:06:50.263Z,11.30
2019-02-20T11:09:19.160Z,11.20
2019-02-20T11:11:48.348Z,11.30
2019-02-20T11:14:17.356Z,11.90
2019-02-20T11:16:46.372Z,11.40
2019-02-20T11:19:16.070Z,11.40
2019-02-20T11:21:45.378Z,12.10
2019-02-20T11:24:14.354Z,12.20
2019-02-20T11:26:52.940Z,11.60
2019-02-20T11:29:14.103Z,11.60
2019-02-20T11:31:43.072Z,11.80
2019-02-20T11:34:12.202Z,11.40
2019-02-20T11:36:41.253Z,11.40
2019-02-20T11:39:11.659Z,11.30
2019-02-20T11:41:40.777Z,11.30
2019-02-20T11:44:09.782Z,11.20
2019-02-20T11:46:38.836Z,10.90
2019-02-20T11:49:07.849Z,10.90
2019-02-20T11:51:37.290Z,10.80
2019-02-20T11:56:36.528Z,10.80
2019-02-20T11:59:05.496Z,11.00
2019-02-20T12:01:34.520Z,11.20
2019-02-20T12:04:03.502Z,11.40
2019-02-20T12:06:32.396Z,11.50
2019-02-20T12:09:01.497Z,11.50
2019-02-20T12:11:30.452Z,11.90
2019-02-20T12:13:59.517Z,12.20
2019-02-20T12:16:28.415Z,11.80
2019-02-20T12:18:57.404Z,11.70
2019-02-20T12:21:26.363Z,11.70
2019-02-20T12:23:55.305Z,11.80
2019-02-20T12:26:24.300Z,11.30
2019-02-20T12:28:53.272Z,11.20
2019-02-20T12:31:22.281Z,11.70
2019-02-20T12:33:52.292Z,11.40
2019-02-20T12:36:21.361Z,11.30
2019-02-20T12:38:50.337Z,11.10
2019-02-20T12:41:19.200Z,11.30
2019-02-20T12:43:48.215Z,11.20
2019-02-20T12:46:17.261Z,11.40
2019-02-20T12:48:46.240Z,11.40
2019-02-20T12:51:15.428Z,12.00
2019-02-20T12:53:44.348Z,12.10
2019-02-20T12:56:13.337Z,12.30
2019-02-20T12:58:42.439Z,13.20
2019-02-20T13:01:11.495Z,13.00
2019-02-20T13:03:40.505Z,12.00
2019-02-20T13:06:09.601Z,11.80
2019-02-20T13:08:38.488Z,11.60
2019-02-20T13:11:07.581Z,11.70
2019-02-20T13:13:36.556Z,12.10
2019-02-20T13:16:09.525Z,12.10
2019-02-20T13:18:36.350Z,12.20
2019-02-20T13:21:05.257Z,11.70
2019-02-20T13:23:34.262Z,11.70
2019-02-20T13:26:03.229Z,11.80
2019-02-20T13:28:32.113Z,11.70
2019-02-20T13:31:01.110Z,11.90
2019-02-20T13:33:29.999Z,12.00
2019-02-20T13:35:59.128Z,11.90
2019-02-20T13:38:28.125Z,12.00
2019-02-20T13:40:57.092Z,11.60
2019-02-20T13:43:26.425Z,11.60
2019-02-20T13:45:55.420Z,11.50
2019-02-20T13:48:24.426Z,11.70
2019-02-20T13:50:53.664Z,11.80
2019-02-20T13:53:22.624Z,11.60
2019-02-20T13:55:51.629Z,11.70
2019-02-20T13:58:20.589Z,11.70
2019-02-20T14:00:49.741Z,11.60
2019-02-20T14:03:18.951Z,11.60
2019-02-20T14:05:48.025Z,11.70
2019-02-20T14:08:17.234Z,11.80
2019-02-20T14:10:46.378Z,12.10
2019-02-20T14:13:15.364Z,12.50
2019-02-20T14:15:45.667Z,12.50
2019-02-20T14:18:14.786Z,12.60
2019-02-20T14:20:43.837Z,12.30
2019-02-20T14:23:12.883Z,12.20
2019-02-20T14:25:41.920Z,12.30
2019-02-20T14:28:10.860Z,12.50
2019-02-20T14:30:39.897Z,12.20
2019-02-20T14:33:08.962Z,11.90
2019-02-20T14:35:37.996Z,12.20
2019-02-20T14:38:07.313Z,12.00
2019-02-20T14:40:36.369Z,12.10
2019-02-20T14:43:05.364Z,11.60
2019-02-20T14:45:34.413Z,11.70
2019-02-20T14:48:03.685Z,11.70
2019-02-20T14:50:32.723Z,11.80
2019-02-20T14:53:01.768Z,12.00
2019-02-20T14:55:30.881Z,12.20
2019-02-20T14:57:59.953Z,12.00
2019-02-20T15:00:28.826Z,11.60
2019-02-20T15:02:58.221Z,11.70
2019-02-20T15:05:27.272Z,11.70
2019-02-20T15:07:56.318Z,11.50
2019-02-20T15:10:25.685Z,11.50
2019-02-20T15:12:54.835Z,11.50
2019-02-20T15:15:23.809Z,11.40
2019-02-20T15:17:52.804Z,11.30
2019-02-20T15:20:21.874Z,11.40
2019-02-20T15:22:51.389Z,11.40
2019-02-20T15:25:20.560Z,11.50
2019-02-20T15:27:49.662Z,11.40
2019-02-20T15:30:18.702Z,11.30
2019-02-20T15:32:47.659Z,11.20
2019-02-20T15:35:17.102Z,11.30
2019-02-20T15:37:46.134Z,11.20
2019-02-20T15:40:15.254Z,11.20
2019-02-20T15:42:44.432Z,11.20
2019-02-20T15:45:13.881Z,11.10
2019-02-20T15:47:42.964Z,11.20
2019-02-20T15:50:12.509Z,11.30
2019-02-20T15:52:41.557Z,11.30
2019-02-20T15:55:11.432Z,11.20
2019-02-20T15:57:40.700Z,11.30
2019-02-20T16:00:11.550Z,11.20
2019-02-20T16:02:40.773Z,11.10
2019-02-20T16:05:10.025Z,11.00
2019-02-20T16:07:39.088Z,11.10
2019-02-20T16:10:08.927Z,11.00
2019-02-20T16:12:38.126Z,11.00
2019-02-20T16:15:07.809Z,11.00
2019-02-20T16:17:36.993Z,10.90
2019-02-20T16:20:07.517Z,10.80
2019-02-20T16:22:36.703Z,10.80
2019-02-20T16:30:03.967Z,10.60
2019-02-20T16:32:33.044Z,10.40
2019-02-20T16:37:31.217Z,10.40
2019-02-20T16:40:00.364Z,10.40
2019-02-20T16:42:29.453Z,10.40
2019-02-20T16:44:58.424Z,10.20
2019-02-20T16:47:27.548Z,10.20
2019-02-20T16:49:56.440Z,10.10
2019-02-20T16:52:25.504Z,10.10
2019-02-20T16:54:55.094Z,10.20
2019-02-20T16:57:24.262Z,10.20
2019-02-20T16:59:53.276Z,10.00
2019-02-20T17:02:22.242Z,9.90
2019-02-20T17:04:59.299Z,9.80
2019-02-20T17:07:23.445Z,9.70
2019-02-20T17:09:52.448Z,9.60
2019-02-20T17:12:21.631Z,9.60
2019-02-20T17:14:50.962Z,9.80
2019-02-20T17:17:20.034Z,9.80
2019-02-20T17:19:49.025Z,9.80
2019-02-20T17:22:17.971Z,9.80
2019-02-20T17:24:47.812Z,9.70
2019-02-20T17:27:16.968Z,9.80
2019-02-20T17:29:46.216Z,9.70
2019-02-20T17:32:15.229Z,9.80
2019-02-20T17:34:44.237Z,10.00
2019-02-20T17:37:13.305Z,10.00
2019-02-20T17:39:42.721Z,9.90
2019-02-20T17:42:11.712Z,9.90
2019-02-20T17:44:42.137Z,9.90
2019-02-20T17:47:11.340Z,9.80
2019-02-20T17:49:40.322Z,9.60
2019-02-20T17:52:09.290Z,9.50
2019-02-20T17:54:38.701Z,9.50
2019-02-20T17:57:07.678Z,9.60
2019-02-20T17:59:36.844Z,9.80
2019-02-20T18:02:06.013Z,9.90
2019-02-20T18:04:35.978Z,9.90
2019-02-20T18:07:05.255Z,9.90
2019-02-20T18:09:34.341Z,9.70
2019-02-20T18:12:03.497Z,9.60
2019-02-20T18:14:32.593Z,9.60
2019-02-20T18:17:01.728Z,9.60
2019-02-20T18:19:30.722Z,9.60
2019-02-20T18:21:59.896Z,9.60
2019-02-20T18:24:29.183Z,9.50
2019-02-20T18:26:58.274Z,9.50
2019-02-20T18:31:56.183Z,9.30
2019-02-20T18:34:25.220Z,9.10
2019-02-20T18:36:54.278Z,8.80
2019-02-20T18:39:23.376Z,8.80
2019-02-20T18:44:20.998Z,8.80
2019-02-20T18:46:51.320Z,8.90
2019-02-20T18:49:21.117Z,8.90
2019-02-20T18:51:50.510Z,8.80
2019-02-20T18:54:21.321Z,8.60
2019-02-20T18:56:50.501Z,8.60
2019-02-20T18:59:19.580Z,8.30
2019-02-20T19:01:48.560Z,8.40
2019-02-20T19:04:17.688Z,8.70
2019-02-20T19:06:46.707Z,8.70
2019-02-20T19:09:23.758Z,8.70
2019-02-20T19:12:09.090Z,8.60
2019-02-20T19:14:51.725Z,8.50
2019-02-20T19:17:57.072Z,8.50
2019-02-20T19:20:59.138Z,8.50
2019-02-20T19:24:07.635Z,8.40
2019-02-20T19:26:47.620Z,7.90
2019-02-20T19:29:54.151Z,7.80
2019-02-20T19:33:31.048Z,7.70
2019-02-20T19:36:39.628Z,7.90
2019-02-20T19:39:16.716Z,7.80
2019-02-20T19:42:19.426Z,7.50
2019-02-20T19:45:04.694Z,7.40
2019-02-20T19:50:29.290Z,7.30
2019-02-20T19:53:28.247Z,7.20
2019-02-20T19:56:25.063Z,7.60
2019-02-20T19:59:25.850Z,7.70
2019-02-20T20:02:32.921Z,7.60
2019-02-20T20:05:27.713Z,7.30
2019-02-20T20:08:21.014Z,7.30
2019-02-20T20:11:12.954Z,7.60
2019-02-20T20:14:25.615Z,7.60
2019-02-20T20:17:30.654Z,7.60
2019-02-20T20:20:27.436Z,7.50
2019-02-20T20:23:38.007Z,7.70
2019-02-20T20:26:41.651Z,7.90
2019-02-20T20:30:01.532Z,7.90
2019-02-20T20:32:58.341Z,7.90
2019-02-20T20:36:18.207Z,7.70
2019-02-20T20:39:13.090Z,7.60
2019-02-20T20:42:03.841Z,7.50
2019-02-20T20:47:29.494Z,7.80
2019-02-20T20:50:36.965Z,7.70
2019-02-20T20:53:43.699Z,7.60
2019-02-20T20:56:57.285Z,7.70
2019-02-20T21:00:07.247Z,7.60
2019-02-20T21:02:51.845Z,7.70
2019-02-20T21:06:03.315Z,7.50
2019-02-20T21:08:56.134Z,7.50
2019-02-20T21:12:01.548Z,7.40
2019-02-20T21:15:18.373Z,7.40
2019-02-20T21:20:54.640Z,7.30
2019-02-20T21:24:16.999Z,7.30
2019-02-20T21:27:15.453Z,7.30
2019-02-20T21:33:17.552Z,7.20
2019-02-20T21:36:14.564Z,7.20
2019-02-20T21:39:27.207Z,7.20
2019-02-20T21:42:25.577Z,7.20
2019-02-20T21:45:01.202Z,7.50
2019-02-20T21:47:49.481Z,7.60
2019-02-20T21:50:46.154Z,7.60
2019-02-20T21:53:47.614Z,7.70
2019-02-20T21:56:30.962Z,7.50
2019-02-20T21:59:50.849Z,7.30
2019-02-20T22:02:51.414Z,7.10
2019-02-20T22:05:36.510Z,7.00
2019-02-20T22:08:32.706Z,7.00
2019-02-20T22:11:30.742Z,6.90
2019-02-20T22:14:21.171Z,6.80
2019-02-20T22:17:34.330Z,6.80
2019-02-20T22:20:51.506Z,6.80
2019-02-20T22:23:35.773Z,6.60
2019-02-20T22:26:32.086Z,6.50
2019-02-20T22:29:56.881Z,6.50
2019-02-20T22:33:11.973Z,6.60
2019-02-20T22:36:14.338Z,6.70
2019-02-20T22:42:18.433Z,6.50
2019-02-20T22:45:33.582Z,6.40
2019-02-20T22:48:36.451Z,6.40
2019-02-20T22:54:09.436Z,6.00
2019-02-20T22:56:50.800Z,6.00
2019-02-20T23:00:01.522Z,5.90
2019-02-20T23:03:19.824Z,5.90
2019-02-20T23:06:31.609Z,5.90
2019-02-20T23:09:22.232Z,5.80
2019-02-20T23:12:34.469Z,5.80
2019-02-20T23:15:03.612Z,5.70
2019-02-20T23:17:32.604Z,5.70
2019-02-20T23:20:01.517Z,5.70
2019-02-20T23:22:30.624Z,5.60
2019-02-20T23:24:59.611Z,5.50
2019-02-20T23:27:28.583Z,5.40
2019-02-20T23:29:57.641Z,5.50
2019-02-20T23:32:26.776Z,5.50
2019-02-20T23:34:55.833Z,5.40
2019-02-20T23:39:53.426Z,5.40
2019-02-20T23:42:22.440Z,5.40
2019-02-20T23:44:52.445Z,5.40
2019-02-20T23:47:21.418Z,5.60
2019-02-20T23:49:50.436Z,5.50
2019-02-20T23:52:19.489Z,5.40
2019-02-20T23:54:48.488Z,5.30
2019-02-20T23:57:17.471Z,5.30
2019-02-20T23:59:46.704Z,5.20
